createdAt,value
2022-12-15T00:00:02.063Z,100326.81
2022-12-15T00:02:47.481Z,100334.66
2022-12-15T00:05:32.985Z,100318.97
2022-12-15T00:08:25.011Z,100301.38
2022-12-15T00:11:10.485Z,100294.41
2022-12-15T00:13:55.891Z,100295.28
2022-12-15T00:16:42.618Z,100296.16
2022-12-15T00:19:28.001Z,100287.47
2022-12-15T00:22:13.441Z,100298.84
2022-12-15T00:24:58.978Z,100296.09
2022-12-15T00:27:44.450Z,100291.78
2022-12-15T00:30:30.447Z,100300.59
2022-12-15T00:33:25.286Z,100296.28
2022-12-15T00:36:10.704Z,100302.44
2022-12-15T00:38:44.921Z,100296.34
2022-12-15T00:41:13.315Z,100305.97
2022-12-15T00:43:41.253Z,100316.47
2022-12-15T00:46:26.902Z,100320.00
2022-12-15T00:48:56.731Z,100333.94
2022-12-15T00:51:42.357Z,100331.31
2022-12-15T00:54:27.881Z,100329.56
2022-12-15T00:57:13.305Z,100338.31
2022-12-15T00:59:58.885Z,100346.25
2022-12-15T01:02:44.557Z,100356.72
2022-12-15T01:05:31.441Z,100361.13
2022-12-15T01:08:17.868Z,100353.28
2022-12-15T01:11:03.436Z,100351.44
2022-12-15T01:13:50.010Z,100355.75
2022-12-15T01:16:35.987Z,100355.69
2022-12-15T01:19:21.594Z,100355.66
2022-12-15T01:21:51.056Z,100357.44
2022-12-15T01:24:19.299Z,100349.63
2022-12-15T01:26:47.182Z,100353.16
2022-12-15T01:29:15.043Z,100361.84
2022-12-15T01:31:44.073Z,100357.47
2022-12-15T01:34:12.103Z,100364.50
2022-12-15T01:36:40.029Z,100351.41
2022-12-15T01:39:09.321Z,100354.88
2022-12-15T01:41:36.271Z,100361.84
2022-12-15T01:44:19.907Z,100349.59
2022-12-15T01:46:48.287Z,100349.56
2022-12-15T01:49:17.494Z,100343.47
2022-12-15T01:51:47.408Z,100337.41
2022-12-15T01:54:17.722Z,100337.47
2022-12-15T01:56:46.522Z,100327.88
2022-12-15T01:59:16.143Z,100340.06
2022-12-15T02:01:44.175Z,100343.59
2022-12-15T02:04:17.865Z,100351.44
2022-12-15T02:06:45.778Z,100343.63
2022-12-15T02:09:13.732Z,100347.16
2022-12-15T02:11:51.312Z,100344.56
2022-12-15T02:14:23.270Z,100341.09
2022-12-15T02:16:58.900Z,100335.84
2022-12-15T02:19:41.870Z,100325.38
2022-12-15T02:22:17.253Z,100320.13
2022-12-15T02:25:03.901Z,100328.00
2022-12-15T02:27:52.804Z,100332.47
2022-12-15T02:30:35.496Z,100338.56
2022-12-15T02:33:09.995Z,100348.09
2022-12-15T02:35:43.200Z,100354.19
2022-12-15T02:38:11.284Z,100345.50
2022-12-15T02:40:40.218Z,100351.63
2022-12-15T02:43:08.219Z,100347.28
2022-12-15T02:45:42.076Z,100343.81
2022-12-15T02:48:13.766Z,100342.00
2022-12-15T02:50:52.598Z,100343.78
2022-12-15T02:53:33.779Z,100342.09
2022-12-15T02:56:05.435Z,100338.59
2022-12-15T02:58:36.478Z,100338.44
2022-12-15T03:01:08.841Z,100340.97
2022-12-15T03:03:36.994Z,100335.81
2022-12-15T03:06:05.246Z,100330.59
2022-12-15T03:08:33.487Z,100333.22
2022-12-15T03:11:01.371Z,100318.47
2022-12-15T03:13:29.750Z,100332.47
2022-12-15T03:15:58.660Z,100325.50
2022-12-15T03:18:28.197Z,100338.59
2022-12-15T03:20:56.098Z,100335.97
2022-12-15T03:23:24.030Z,100339.44
2022-12-15T03:25:51.986Z,100339.41
2022-12-15T03:28:19.901Z,100337.63
2022-12-15T03:30:50.564Z,100344.56
2022-12-15T03:33:18.793Z,100371.59
2022-12-15T03:35:48.090Z,100365.50
2022-12-15T03:38:16.044Z,100367.25
2022-12-15T03:40:43.974Z,100369.97
2022-12-15T03:43:11.923Z,100356.06
2022-12-15T03:45:39.826Z,100352.59
2022-12-15T03:48:07.847Z,100356.97
2022-12-15T03:50:35.768Z,100365.72
2022-12-15T03:53:05.232Z,100357.91
2022-12-15T03:55:33.153Z,100358.75
2022-12-15T03:58:01.053Z,100352.66
2022-12-15T04:00:28.917Z,100355.28
2022-12-15T04:02:56.961Z,100353.56
2022-12-15T04:05:26.784Z,100359.63
2022-12-15T04:07:54.703Z,100363.16
2022-12-15T04:10:27.368Z,100361.38
2022-12-15T04:12:59.761Z,100361.38
2022-12-15T04:15:27.719Z,100374.44
2022-12-15T04:17:55.697Z,100364.06
2022-12-15T04:20:23.798Z,100369.28
2022-12-15T04:22:52.909Z,100378.03
2022-12-15T04:25:39.753Z,100383.25
2022-12-15T04:28:26.844Z,100383.25
2022-12-15T04:31:13.700Z,100384.13
2022-12-15T04:34:00.004Z,100395.44
2022-12-15T04:36:45.400Z,100399.75
2022-12-15T04:39:30.848Z,100393.72
2022-12-15T04:42:16.726Z,100398.06
2022-12-15T04:45:03.388Z,100393.78
2022-12-15T04:47:48.535Z,100385.03
2022-12-15T04:50:34.022Z,100378.91
2022-12-15T04:53:26.334Z,100377.16
2022-12-15T04:56:17.923Z,100373.66
2022-12-15T04:59:03.700Z,100383.25
2022-12-15T05:01:50.556Z,100379.81
2022-12-15T05:04:35.730Z,100385.03
2022-12-15T05:07:20.993Z,100387.66
2022-12-15T05:10:12.718Z,100397.28
2022-12-15T05:13:00.313Z,100394.66
2022-12-15T05:15:45.743Z,100400.72
2022-12-15T05:18:32.761Z,100398.97
2022-12-15T05:21:18.205Z,100389.44
2022-12-15T05:24:03.382Z,100388.59
2022-12-15T05:26:52.631Z,100400.81
2022-12-15T05:29:38.623Z,100398.25
2022-12-15T05:32:06.780Z,100392.13
2022-12-15T05:34:37.004Z,100399.78
2022-12-15T05:37:05.404Z,100399.75
2022-12-15T05:39:33.360Z,100404.94
2022-12-15T05:42:01.354Z,100400.47
2022-12-15T05:44:29.299Z,100409.16
2022-12-15T05:46:57.236Z,100409.09
2022-12-15T05:49:25.148Z,100406.44
2022-12-15T05:51:54.527Z,100414.28
2022-12-15T05:54:22.381Z,100422.03
2022-12-15T05:56:50.702Z,100423.69
2022-12-15T05:59:19.125Z,100418.44
2022-12-15T06:01:47.296Z,100426.22
2022-12-15T06:04:15.297Z,100426.22
2022-12-15T06:06:43.331Z,100444.59
2022-12-15T06:09:12.744Z,100438.47
2022-12-15T06:11:40.655Z,100454.13
2022-12-15T06:14:08.575Z,100445.38
2022-12-15T06:16:42.591Z,100455.81
2022-12-15T06:19:12.284Z,100459.19
2022-12-15T06:21:40.213Z,100454.88
2022-12-15T06:24:09.123Z,100451.47
2022-12-15T06:26:39.035Z,100455.84
2022-12-15T06:29:08.650Z,100456.75
2022-12-15T06:31:36.683Z,100454.19
2022-12-15T06:34:04.985Z,100457.72
2022-12-15T06:36:32.875Z,100466.44
2022-12-15T06:39:01.548Z,100476.81
2022-12-15T06:41:30.406Z,100477.69
2022-12-15T06:43:59.975Z,100485.50
2022-12-15T06:46:28.564Z,100492.31
2022-12-15T06:48:56.528Z,100485.25
2022-12-15T06:51:24.480Z,100492.03
2022-12-15T06:53:54.088Z,100500.84
2022-12-15T06:56:27.275Z,100500.03
2022-12-15T06:59:01.813Z,100504.31
2022-12-15T07:01:30.023Z,100506.91
2022-12-15T07:04:00.036Z,100509.53
2022-12-15T07:06:28.323Z,100510.50
2022-12-15T07:08:56.735Z,100508.84
2022-12-15T07:11:24.852Z,100510.63
2022-12-15T07:13:52.895Z,100515.03
2022-12-15T07:16:22.803Z,100522.88
2022-12-15T07:18:50.982Z,100533.34
2022-12-15T07:21:18.984Z,100528.97
2022-12-15T07:23:54.699Z,100521.09
2022-12-15T07:26:24.196Z,100520.22
2022-12-15T07:28:52.952Z,100515.78
2022-12-15T07:31:22.510Z,100518.34
2022-12-15T07:33:52.232Z,100530.34
2022-12-15T07:36:20.720Z,100525.13
2022-12-15T07:38:50.391Z,100529.50
2022-12-15T07:41:18.882Z,100544.38
2022-12-15T07:43:49.786Z,100544.38
2022-12-15T07:46:17.839Z,100550.47
2022-12-15T07:48:50.479Z,100555.69
2022-12-15T07:51:20.695Z,100550.47
2022-12-15T07:53:49.557Z,100555.69
2022-12-15T07:56:17.564Z,100572.31
2022-12-15T07:58:45.443Z,100563.59
2022-12-15T08:01:14.220Z,100573.16
2022-12-15T08:03:42.185Z,100567.94
2022-12-15T08:06:12.327Z,100569.69
2022-12-15T08:08:40.595Z,100568.81
2022-12-15T08:11:08.562Z,100553.16
2022-12-15T08:16:24.414Z,100560.22
2022-12-15T08:18:52.418Z,100568.06
2022-12-15T08:21:21.752Z,100579.34
2022-12-15T08:23:49.672Z,100575.88
2022-12-15T08:26:18.395Z,100574.94
2022-12-15T08:28:46.502Z,100577.56
2022-12-15T08:31:15.699Z,100570.59
2022-12-15T08:33:43.714Z,100561.94
2022-12-15T08:36:12.937Z,100569.78
2022-12-15T08:38:42.410Z,100572.34
2022-12-15T08:41:11.141Z,100563.56
2022-12-15T08:43:47.224Z,100574.84
2022-12-15T08:46:16.874Z,100570.44
2022-12-15T08:48:45.013Z,100580.00
2022-12-15T08:51:13.090Z,100576.50
2022-12-15T08:53:42.543Z,100573.84
2022-12-15T08:56:12.210Z,100576.44
2022-12-15T08:58:40.346Z,100581.56
2022-12-15T09:01:10.011Z,100578.03
2022-12-15T09:03:38.012Z,100586.69
2022-12-15T09:06:06.243Z,100589.38
2022-12-15T09:08:34.217Z,100582.44
2022-12-15T09:11:05.592Z,100584.13
2022-12-15T09:13:33.932Z,100582.38
2022-12-15T09:16:11.138Z,100588.44
2022-12-15T09:18:39.558Z,100588.47
2022-12-15T09:21:08.339Z,100591.09
2022-12-15T09:23:37.023Z,100587.59
2022-12-15T09:26:07.683Z,100591.09
2022-12-15T09:28:35.646Z,100591.09
2022-12-15T09:31:06.802Z,100605.03
2022-12-15T09:33:35.178Z,100599.81
2022-12-15T09:36:03.622Z,100598.06
2022-12-15T09:38:31.655Z,100598.88
2022-12-15T09:40:59.479Z,100597.94
2022-12-15T09:43:40.097Z,100590.06
2022-12-15T09:46:25.295Z,100593.44
2022-12-15T09:48:53.305Z,100596.00
2022-12-15T09:51:31.203Z,100595.94
2022-12-15T09:53:59.641Z,100599.38
2022-12-15T09:56:40.893Z,100593.25
2022-12-15T09:59:18.515Z,100594.06
2022-12-15T10:01:48.090Z,100585.25
2022-12-15T10:04:18.106Z,100586.13
2022-12-15T10:06:50.651Z,100577.38
2022-12-15T10:09:19.784Z,100593.91
2022-12-15T10:11:50.526Z,100600.00
2022-12-15T10:14:25.971Z,100604.31
2022-12-15T10:17:02.427Z,100606.94
2022-12-15T10:19:34.856Z,100606.91
2022-12-15T10:22:02.781Z,100607.69
2022-12-15T10:25:07.796Z,100610.25
2022-12-15T10:27:30.259Z,100615.41
2022-12-15T10:30:02.322Z,100611.06
2022-12-15T10:32:39.344Z,100616.28
2022-12-15T10:35:15.448Z,100613.59
2022-12-15T10:37:43.938Z,100615.31
2022-12-15T10:40:16.357Z,100616.19
2022-12-15T10:42:47.457Z,100612.69
2022-12-15T10:45:33.419Z,100619.63
2022-12-15T10:48:02.619Z,100628.38
2022-12-15T10:50:30.764Z,100617.91
2022-12-15T10:52:58.807Z,100624.91
2022-12-15T10:55:38.005Z,100626.63
2022-12-15T10:58:14.274Z,100624.00
2022-12-15T11:00:43.509Z,100618.75
2022-12-15T11:03:23.046Z,100620.50
2022-12-15T11:05:54.406Z,100619.53
2022-12-15T11:08:22.655Z,100620.28
2022-12-15T11:11:08.986Z,100631.50
2022-12-15T11:13:37.256Z,100635.78
2022-12-15T11:16:15.957Z,100631.31
2022-12-15T11:18:45.209Z,100626.91
2022-12-15T11:21:14.024Z,100631.22
2022-12-15T11:23:56.235Z,100633.72
2022-12-15T11:26:30.374Z,100635.53
2022-12-15T11:29:00.908Z,100633.84
2022-12-15T11:31:33.400Z,100634.63
2022-12-15T11:34:01.287Z,100639.88
2022-12-15T11:36:51.146Z,100641.59
2022-12-15T11:39:22.947Z,100634.56
2022-12-15T11:41:54.773Z,100625.00
2022-12-15T11:44:40.235Z,100638.97
2022-12-15T11:47:13.289Z,100636.31
2022-12-15T11:50:16.295Z,100631.91
2022-12-15T11:53:22.421Z,100637.09
2022-12-15T11:55:53.333Z,100635.41
2022-12-15T11:58:37.301Z,100640.59
2022-12-15T12:01:09.955Z,100638.81
2022-12-15T12:03:42.460Z,100636.13
2022-12-15T12:06:13.050Z,100640.50
2022-12-15T12:08:55.046Z,100641.34
2022-12-15T12:11:25.164Z,100646.50
2022-12-15T12:14:09.671Z,100643.84
2022-12-15T12:16:41.545Z,100650.78
2022-12-15T12:19:12.985Z,100647.31
2022-12-15T12:21:41.843Z,100650.00
2022-12-15T12:24:13.472Z,100654.41
2022-12-15T12:26:42.462Z,100659.72
2022-12-15T12:29:14.208Z,100655.34
2022-12-15T12:31:45.067Z,100651.91
2022-12-15T12:34:17.047Z,100647.47
2022-12-15T12:36:45.158Z,100660.59
2022-12-15T12:39:19.018Z,100658.03
2022-12-15T12:41:48.809Z,100655.41
2022-12-15T12:44:20.460Z,100656.31
2022-12-15T12:46:49.097Z,100658.03
2022-12-15T12:49:26.693Z,100648.38
2022-12-15T12:51:55.368Z,100649.16
2022-12-15T12:54:41.430Z,100648.22
2022-12-15T12:57:38.476Z,100649.94
2022-12-15T13:00:21.438Z,100656.06
2022-12-15T13:03:12.367Z,100649.88
2022-12-15T13:05:41.950Z,100648.09
2022-12-15T13:08:40.439Z,100646.28
2022-12-15T13:11:46.434Z,100645.38
2022-12-15T13:14:24.125Z,100645.31
2022-12-15T13:17:24.970Z,100647.91
2022-12-15T13:20:26.863Z,100647.88
2022-12-15T13:22:57.453Z,100644.28
2022-12-15T13:25:38.634Z,100642.50
2022-12-15T13:28:27.140Z,100647.75
2022-12-15T13:31:43.951Z,100653.81
2022-12-15T13:34:25.476Z,100649.50
2022-12-15T13:36:55.701Z,100650.44
2022-12-15T13:39:58.750Z,100642.66
2022-12-15T13:42:53.068Z,100628.72
2022-12-15T13:45:45.350Z,100637.50
2022-12-15T13:48:33.526Z,100641.97
2022-12-15T13:51:07.578Z,100640.22
2022-12-15T13:53:40.136Z,100645.53
2022-12-15T13:56:20.703Z,100648.22
2022-12-15T13:58:57.685Z,100654.38
2022-12-15T14:01:32.234Z,100650.03
2022-12-15T14:04:05.269Z,100658.78
2022-12-15T14:06:36.628Z,100661.34
2022-12-15T14:09:05.079Z,100657.06
2022-12-15T14:11:52.436Z,100654.44
2022-12-15T14:14:23.446Z,100665.81
2022-12-15T14:16:59.556Z,100671.09
2022-12-15T14:19:29.932Z,100665.88
2022-12-15T14:22:01.336Z,100663.38
2022-12-15T14:24:41.174Z,100668.66
2022-12-15T14:27:11.159Z,100666.06
2022-12-15T14:29:39.079Z,100664.31
2022-12-15T14:32:07.042Z,100673.03
2022-12-15T14:34:37.010Z,100670.50
2022-12-15T14:37:07.704Z,100673.13
2022-12-15T14:39:37.415Z,100673.19
2022-12-15T14:42:05.415Z,100681.09
2022-12-15T14:44:38.326Z,100686.34
2022-12-15T14:47:08.402Z,100680.25
2022-12-15T14:49:40.028Z,100673.25
2022-12-15T14:52:08.195Z,100680.31
2022-12-15T14:54:37.025Z,100682.09
2022-12-15T14:57:13.745Z,100683.00
2022-12-15T14:59:43.758Z,100683.91
2022-12-15T15:02:13.842Z,100685.69
2022-12-15T15:04:42.255Z,100685.69
2022-12-15T15:07:17.624Z,100673.47
2022-12-15T15:09:45.995Z,100676.97
2022-12-15T15:12:18.333Z,100678.72
2022-12-15T15:14:48.697Z,100670.03
2022-12-15T15:17:26.589Z,100672.66
2022-12-15T15:19:55.635Z,100672.69
2022-12-15T15:22:32.307Z,100678.81
2022-12-15T15:25:00.575Z,100676.19
2022-12-15T15:27:33.927Z,100681.50
2022-12-15T15:30:17.739Z,100680.59
2022-12-15T15:32:56.248Z,100684.13
2022-12-15T15:35:25.082Z,100678.03
2022-12-15T15:37:53.316Z,100681.56
2022-12-15T15:40:21.223Z,100676.34
2022-12-15T15:42:49.329Z,100671.94
2022-12-15T15:45:18.668Z,100676.31
2022-12-15T15:47:48.229Z,100679.84
2022-12-15T15:50:17.526Z,100687.69
2022-12-15T15:52:45.378Z,100692.94
2022-12-15T15:55:16.970Z,100692.06
2022-12-15T15:57:44.845Z,100696.47
2022-12-15T16:00:19.691Z,100683.38
2022-12-15T16:02:47.700Z,100687.69
2022-12-15T16:05:15.950Z,100692.06
2022-12-15T16:07:43.904Z,100686.81
2022-12-15T16:10:14.505Z,100683.34
2022-12-15T16:12:43.585Z,100676.31
2022-12-15T16:15:19.971Z,100678.09
2022-12-15T16:17:48.174Z,100685.91
2022-12-15T16:20:17.084Z,100683.25
2022-12-15T16:22:46.509Z,100692.88
2022-12-15T16:25:15.505Z,100689.34
2022-12-15T16:27:43.390Z,100694.59
2022-12-15T16:30:21.317Z,100697.22
2022-12-15T16:32:49.219Z,100691.97
2022-12-15T16:35:17.785Z,100689.34
2022-12-15T16:37:47.420Z,100692.81
2022-12-15T16:40:17.522Z,100705.91
2022-12-15T16:42:46.368Z,100705.06
2022-12-15T16:45:16.501Z,100708.59
2022-12-15T16:47:46.078Z,100709.47
2022-12-15T16:50:15.295Z,100713.91
2022-12-15T16:52:43.575Z,100714.81
2022-12-15T16:55:21.089Z,100718.28
2022-12-15T16:57:49.062Z,100713.94
2022-12-15T17:00:19.126Z,100723.59
2022-12-15T17:02:48.785Z,100721.91
2022-12-15T17:05:16.897Z,100717.50
2022-12-15T17:07:45.084Z,100718.38
2022-12-15T17:10:20.491Z,100711.38
2022-12-15T17:12:48.547Z,100716.56
2022-12-15T17:15:21.083Z,100715.72
2022-12-15T17:17:50.410Z,100720.06
2022-12-15T17:20:30.684Z,100727.94
2022-12-15T17:23:00.569Z,100727.91
2022-12-15T17:26:09.267Z,100728.78
2022-12-15T17:28:21.895Z,100728.78
2022-12-15T17:30:50.280Z,100727.94
2022-12-15T17:33:23.514Z,100730.56
2022-12-15T17:35:52.554Z,100732.31
2022-12-15T17:38:21.262Z,100736.72
2022-12-15T17:40:49.410Z,100743.72
2022-12-15T17:43:18.401Z,100741.97
2022-12-15T17:45:46.429Z,100746.28
2022-12-15T17:48:14.359Z,100749.81
2022-12-15T17:50:44.953Z,100757.63
2022-12-15T17:53:12.954Z,100760.25
2022-12-15T17:55:40.843Z,100751.53
2022-12-15T17:58:16.440Z,100757.66
2022-12-15T18:00:49.072Z,100752.44
2022-12-15T18:03:17.714Z,100757.72
2022-12-15T18:05:47.218Z,100765.56
2022-12-15T18:08:16.240Z,100762.03
2022-12-15T18:10:44.138Z,100762.97
2022-12-15T18:13:18.216Z,100757.72
2022-12-15T18:15:46.677Z,100771.66
2022-12-15T18:18:14.705Z,100773.38
2022-12-15T18:20:42.597Z,100768.16
2022-12-15T18:23:15.321Z,100766.44
2022-12-15T18:25:43.408Z,100769.06
2022-12-15T18:28:19.756Z,100776.00
2022-12-15T18:30:47.932Z,100779.47
2022-12-15T18:33:15.808Z,100780.34
2022-12-15T18:35:44.644Z,100777.75
2022-12-15T18:38:18.044Z,100794.25
2022-12-15T18:40:46.842Z,100793.34
2022-12-15T18:43:15.564Z,100799.44
2022-12-15T18:45:43.480Z,100803.78
2022-12-15T18:48:16.986Z,100813.44
2022-12-15T18:50:44.888Z,100816.06
2022-12-15T18:53:19.314Z,100814.25
2022-12-15T18:55:47.367Z,100813.38
2022-12-15T18:58:25.552Z,100813.38
2022-12-15T19:00:53.451Z,100819.44
2022-12-15T19:03:21.734Z,100825.56
2022-12-15T19:05:49.881Z,100818.63
2022-12-15T19:08:20.295Z,100822.06
2022-12-15T19:10:51.071Z,100825.56
2022-12-15T19:13:19.641Z,100834.34
2022-12-15T19:15:47.651Z,100831.75
2022-12-15T19:18:33.347Z,100836.09
2022-12-15T19:21:19.090Z,100833.50
2022-12-15T19:23:48.511Z,100836.16
2022-12-15T19:26:16.390Z,100849.25
2022-12-15T19:28:44.324Z,100849.25
2022-12-15T19:31:12.204Z,100863.22
2022-12-15T19:33:40.122Z,100863.16
2022-12-15T19:36:11.434Z,100862.25
2022-12-15T19:38:39.351Z,100859.66
2022-12-15T19:41:09.911Z,100871.06
2022-12-15T19:43:38.296Z,100873.72
2022-12-15T19:46:06.583Z,100877.22
2022-12-15T19:48:34.597Z,100883.31
2022-12-15T19:51:02.457Z,100881.56
2022-12-15T19:53:30.685Z,100878.06
2022-12-15T19:56:01.322Z,100881.59
2022-12-15T19:58:31.680Z,100881.59
2022-12-15T20:01:00.437Z,100881.59
2022-12-15T20:03:29.044Z,100881.63
2022-12-15T20:05:57.612Z,100892.97
2022-12-15T20:08:26.711Z,100885.13
2022-12-15T20:10:55.011Z,100899.13
2022-12-15T20:13:23.096Z,100899.13
2022-12-15T20:15:52.487Z,100905.19
2022-12-15T20:18:20.440Z,100898.25
2022-12-15T20:20:49.010Z,100893.03
2022-12-15T20:23:18.821Z,100892.16
2022-12-15T20:25:47.288Z,100894.78
2022-12-15T20:28:17.694Z,100896.50
2022-12-15T20:30:45.952Z,100899.97
2022-12-15T20:33:15.293Z,100898.22
2022-12-15T20:35:43.359Z,100897.31
2022-12-15T20:38:22.527Z,100907.75
2022-12-15T20:40:50.433Z,100910.34
2022-12-15T20:43:20.420Z,100905.94
2022-12-15T20:45:51.957Z,100911.19
2022-12-15T20:48:23.931Z,100909.44
2022-12-15T20:50:52.808Z,100912.06
2022-12-15T20:53:21.721Z,100919.94
2022-12-15T20:55:49.782Z,100921.66
2022-12-15T20:58:18.020Z,100927.75
2022-12-15T21:00:46.180Z,100932.09
2022-12-15T21:03:23.927Z,100929.47
2022-12-15T21:05:52.792Z,100933.75
2022-12-15T21:08:24.792Z,100936.34
2022-12-15T21:10:53.355Z,100941.56
2022-12-15T21:13:24.021Z,100938.06
2022-12-15T21:15:51.944Z,100946.84
2022-12-15T21:19:03.503Z,100944.25
2022-12-15T21:21:13.485Z,100946.91
2022-12-15T21:23:42.966Z,100945.22
2022-12-15T21:26:11.188Z,100940.84
2022-12-15T21:28:39.106Z,100947.00
2022-12-15T21:31:07.169Z,100941.75
2022-12-15T21:33:35.086Z,100950.47
2022-12-15T21:36:03.000Z,100947.00
2022-12-15T21:38:33.809Z,100949.66
2022-12-15T21:41:02.973Z,100961.03
2022-12-15T21:43:32.341Z,100961.91
2022-12-15T21:46:00.361Z,100968.03
2022-12-15T21:48:45.871Z,100961.97
2022-12-15T21:51:15.042Z,100972.44
2022-12-15T21:53:44.332Z,100975.06
2022-12-15T21:56:15.998Z,100968.06
2022-12-15T21:58:43.907Z,100970.72
2022-12-15T22:01:15.680Z,100982.06
2022-12-15T22:03:44.890Z,100969.84
2022-12-15T22:06:17.780Z,100970.72
2022-12-15T22:08:47.082Z,100968.13
2022-12-15T22:11:20.426Z,100965.53
2022-12-15T22:13:48.689Z,100968.16
2022-12-15T22:16:16.830Z,100966.44
2022-12-15T22:18:44.812Z,100979.53
2022-12-15T22:21:13.326Z,100971.69
2022-12-15T22:23:41.241Z,100980.47
2022-12-15T22:26:15.727Z,100977.78
2022-12-15T22:28:43.579Z,100985.66
2022-12-15T22:31:11.651Z,100989.16
2022-12-15T22:33:39.537Z,100991.78
2022-12-15T22:36:07.958Z,100996.19
2022-12-15T22:38:36.163Z,101000.53
2022-12-15T22:41:04.440Z,100995.28
2022-12-15T22:43:35.983Z,100990.06
2022-12-15T22:46:04.092Z,100989.19
2022-12-15T22:48:34.511Z,100987.44
2022-12-15T22:51:02.585Z,100981.31
2022-12-15T22:53:31.657Z,100977.88
2022-12-15T22:55:59.554Z,100977.88
2022-12-15T22:58:28.868Z,100983.13
2022-12-15T23:00:58.628Z,100976.09
2022-12-15T23:03:27.670Z,100983.97
2022-12-15T23:05:55.520Z,100981.34
2022-12-15T23:08:23.494Z,100981.34
2022-12-15T23:11:08.901Z,100981.34
2022-12-15T23:13:36.924Z,100991.81
2022-12-15T23:16:22.178Z,100988.34
2022-12-15T23:18:50.552Z,100986.59
2022-12-15T23:21:19.795Z,100998.84
2022-12-15T23:23:47.671Z,100997.94
2022-12-15T23:26:16.344Z,100990.97
2022-12-15T23:28:44.361Z,101004.06
2022-12-15T23:31:13.683Z,101007.53
2022-12-15T23:33:42.196Z,101018.00
2022-12-15T23:36:10.811Z,101023.22
2022-12-15T23:38:38.708Z,101025.81
2022-12-15T23:41:06.916Z,101024.94
2022-12-15T23:43:36.177Z,101026.69
2022-12-15T23:46:05.289Z,101024.06
2022-12-15T23:48:35.614Z,101031.09
2022-12-15T23:51:07.167Z,101031.97
2022-12-15T23:53:36.421Z,101030.25
2022-12-15T23:56:09.555Z,101022.41
2022-12-15T23:58:37.832Z,101024.16
